sensor_id;sensor_type;location;lat;lon;timestamp;P1;durP1;ratioP1;P2;durP2;ratioP2
11970;SDS011;6045;42.682;23.294;2023-04-15T00:00:41;6.93;;;3.90;;
11970;SDS011;6045;42.682;23.294;2023-04-15T00:03:08;3.90;;;2.40;;
11970;SDS011;6045;42.682;23.294;2023-04-15T00:05:35;5.27;;;2.80;;
11970;SDS011;6045;42.682;23.294;2023-04-15T00:08:02;3.80;;;2.50;;
11970;SDS011;6045;42.682;23.294;2023-04-15T00:10:29;3.40;;;2.87;;
11970;SDS011;6045;42.682;23.294;2023-04-15T00:12:57;5.47;;;3.17;;
11970;SDS011;6045;42.682;23.294;2023-04-15T00:15:24;3.93;;;3.47;;
11970;SDS011;6045;42.682;23.294;2023-04-15T00:17:51;3.87;;;2.67;;
11970;SDS011;6045;42.682;23.294;2023-04-15T00:20:18;4.63;;;2.73;;
11970;SDS011;6045;42.682;23.294;2023-04-15T00:22:45;5.63;;;3.63;;
11970;SDS011;6045;42.682;23.294;2023-04-15T00:25:11;5.60;;;3.17;;
11970;SDS011;6045;42.682;23.294;2023-04-15T00:27:39;4.67;;;3.40;;
11970;SDS011;6045;42.682;23.294;2023-04-15T00:30:08;4.90;;;2.90;;
11970;SDS011;6045;42.682;23.294;2023-04-15T00:32:35;7.07;;;3.03;;
11970;SDS011;6045;42.682;23.294;2023-04-15T00:35:02;5.87;;;2.87;;
11970;SDS011;6045;42.682;23.294;2023-04-15T00:37:29;8.13;;;3.23;;
11970;SDS011;6045;42.682;23.294;2023-04-15T00:39:56;4.10;;;2.87;;
11970;SDS011;6045;42.682;23.294;2023-04-15T00:42:23;4.13;;;2.50;;
11970;SDS011;6045;42.682;23.294;2023-04-15T00:44:51;2.87;;;2.13;;
11970;SDS011;6045;42.682;23.294;2023-04-15T00:47:19;6.90;;;3.03;;
11970;SDS011;6045;42.682;23.294;2023-04-15T00:49:46;3.30;;;2.33;;
11970;SDS011;6045;42.682;23.294;2023-04-15T00:52:13;5.20;;;3.17;;
11970;SDS011;6045;42.682;23.294;2023-04-15T00:54:40;3.83;;;2.50;;
11970;SDS011;6045;42.682;23.294;2023-04-15T00:57:07;3.40;;;2.17;;
11970;SDS011;6045;42.682;23.294;2023-04-15T00:59:34;3.10;;;2.20;;
11970;SDS011;6045;42.682;23.294;2023-04-15T01:02:01;3.17;;;2.50;;
11970;SDS011;6045;42.682;23.294;2023-04-15T01:04:29;4.23;;;2.60;;
11970;SDS011;6045;42.682;23.294;2023-04-15T01:06:57;6.20;;;3.23;;
11970;SDS011;6045;42.682;23.294;2023-04-15T01:09:24;4.83;;;2.73;;
11970;SDS011;6045;42.682;23.294;2023-04-15T01:11:51;3.83;;;2.70;;
11970;SDS011;6045;42.682;23.294;2023-04-15T01:14:18;4.53;;;2.87;;
11970;SDS011;6045;42.682;23.294;2023-04-15T01:16:45;3.17;;;2.57;;
11970;SDS011;6045;42.682;23.294;2023-04-15T01:19:12;2.83;;;2.53;;
11970;SDS011;6045;42.682;23.294;2023-04-15T01:21:43;2.93;;;1.77;;
11970;SDS011;6045;42.682;23.294;2023-04-15T01:24:10;4.73;;;2.87;;
11970;SDS011;6045;42.682;23.294;2023-04-15T01:26:40;4.53;;;2.57;;
11970;SDS011;6045;42.682;23.294;2023-04-15T01:29:07;5.67;;;3.10;;
11970;SDS011;6045;42.682;23.294;2023-04-15T01:31:34;3.90;;;2.20;;
11970;SDS011;6045;42.682;23.294;2023-04-15T01:34:00;3.87;;;2.30;;
11970;SDS011;6045;42.682;23.294;2023-04-15T01:36:27;3.13;;;2.33;;
11970;SDS011;6045;42.682;23.294;2023-04-15T01:38:54;3.63;;;2.57;;
11970;SDS011;6045;42.682;23.294;2023-04-15T01:41:24;5.50;;;3.10;;
11970;SDS011;6045;42.682;23.294;2023-04-15T01:43:53;4.43;;;2.83;;
11970;SDS011;6045;42.682;23.294;2023-04-15T01:46:20;3.33;;;2.73;;
11970;SDS011;6045;42.682;23.294;2023-04-15T01:48:47;3.53;;;2.67;;
11970;SDS011;6045;42.682;23.294;2023-04-15T01:51:14;6.57;;;2.60;;
11970;SDS011;6045;42.682;23.294;2023-04-15T01:53:41;2.53;;;2.10;;
11970;SDS011;6045;42.682;23.294;2023-04-15T01:56:08;2.80;;;2.13;;
11970;SDS011;6045;42.682;23.294;2023-04-15T01:58:35;6.37;;;3.20;;
11970;SDS011;6045;42.682;23.294;2023-04-15T02:01:03;3.83;;;2.63;;
11970;SDS011;6045;42.682;23.294;2023-04-15T02:03:29;3.70;;;1.97;;
11970;SDS011;6045;42.682;23.294;2023-04-15T02:05:57;2.47;;;2.00;;
11970;SDS011;6045;42.682;23.294;2023-04-15T02:08:23;3.83;;;3.10;;
11970;SDS011;6045;42.682;23.294;2023-04-15T02:10:50;5.43;;;2.67;;
11970;SDS011;6045;42.682;23.294;2023-04-15T02:13:17;10.53;;;2.93;;
11970;SDS011;6045;42.682;23.294;2023-04-15T02:15:46;2.27;;;2.07;;
11970;SDS011;6045;42.682;23.294;2023-04-15T02:18:15;4.20;;;2.10;;
11970;SDS011;6045;42.682;23.294;2023-04-15T02:20:42;3.17;;;2.57;;
11970;SDS011;6045;42.682;23.294;2023-04-15T02:23:09;3.77;;;2.43;;
11970;SDS011;6045;42.682;23.294;2023-04-15T02:25:36;5.97;;;3.60;;
11970;SDS011;6045;42.682;23.294;2023-04-15T02:28:03;5.07;;;3.03;;
11970;SDS011;6045;42.682;23.294;2023-04-15T02:30:31;4.87;;;2.33;;
11970;SDS011;6045;42.682;23.294;2023-04-15T02:32:58;3.33;;;2.03;;
11970;SDS011;6045;42.682;23.294;2023-04-15T02:35:27;2.67;;;2.00;;
11970;SDS011;6045;42.682;23.294;2023-04-15T02:37:54;3.10;;;2.10;;
11970;SDS011;6045;42.682;23.294;2023-04-15T02:40:20;2.53;;;2.23;;
11970;SDS011;6045;42.682;23.294;2023-04-15T02:42:47;3.77;;;2.27;;
11970;SDS011;6045;42.682;23.294;2023-04-15T02:45:14;3.73;;;2.30;;
11970;SDS011;6045;42.682;23.294;2023-04-15T02:47:42;3.63;;;2.43;;
11970;SDS011;6045;42.682;23.294;2023-04-15T02:50:10;3.53;;;1.77;;
11970;SDS011;6045;42.682;23.294;2023-04-15T02:52:39;3.10;;;1.83;;
11970;SDS011;6045;42.682;23.294;2023-04-15T02:55:07;2.13;;;1.90;;
11970;SDS011;6045;42.682;23.294;2023-04-15T02:57:34;4.20;;;1.70;;
11970;SDS011;6045;42.682;23.294;2023-04-15T03:00:03;5.17;;;2.77;;
11970;SDS011;6045;42.682;23.294;2023-04-15T03:02:32;2.37;;;2.17;;
11970;SDS011;6045;42.682;23.294;2023-04-15T03:05:00;6.10;;;2.97;;
11970;SDS011;6045;42.682;23.294;2023-04-15T03:07:26;4.63;;;2.97;;
11970;SDS011;6045;42.682;23.294;2023-04-15T03:09:54;3.67;;;2.10;;
11970;SDS011;6045;42.682;23.294;2023-04-15T03:12:22;2.87;;;2.27;;
11970;SDS011;6045;42.682;23.294;2023-04-15T03:14:48;2.30;;;2.00;;
11970;SDS011;6045;42.682;23.294;2023-04-15T03:17:15;7.17;;;2.90;;
11970;SDS011;6045;42.682;23.294;2023-04-15T03:19:42;5.07;;;2.73;;
11970;SDS011;6045;42.682;23.294;2023-04-15T03:22:09;3.03;;;2.73;;
11970;SDS011;6045;42.682;23.294;2023-04-15T03:24:36;4.20;;;2.17;;
11970;SDS011;6045;42.682;23.294;2023-04-15T03:27:04;3.50;;;3.17;;
11970;SDS011;6045;42.682;23.294;2023-04-15T03:29:32;9.57;;;2.87;;
11970;SDS011;6045;42.682;23.294;2023-04-15T03:31:58;4.03;;;2.90;;
11970;SDS011;6045;42.682;23.294;2023-04-15T03:34:25;3.70;;;3.33;;
11970;SDS011;6045;42.682;23.294;2023-04-15T03:36:52;4.53;;;3.00;;
11970;SDS011;6045;42.682;23.294;2023-04-15T03:39:19;4.93;;;3.23;;
11970;SDS011;6045;42.682;23.294;2023-04-15T03:41:46;4.63;;;3.17;;
11970;SDS011;6045;42.682;23.294;2023-04-15T03:44:14;5.07;;;4.00;;
11970;SDS011;6045;42.682;23.294;2023-04-15T03:46:41;4.27;;;3.07;;
11970;SDS011;6045;42.682;23.294;2023-04-15T03:49:07;5.00;;;3.37;;
11970;SDS011;6045;42.682;23.294;2023-04-15T03:51:34;4.13;;;2.27;;
11970;SDS011;6045;42.682;23.294;2023-04-15T03:54:01;6.00;;;2.50;;
11970;SDS011;6045;42.682;23.294;2023-04-15T03:56:28;4.43;;;2.70;;
11970;SDS011;6045;42.682;23.294;2023-04-15T03:58:54;4.37;;;2.97;;
11970;SDS011;6045;42.682;23.294;2023-04-15T04:01:22;3.23;;;2.20;;
11970;SDS011;6045;42.682;23.294;2023-04-15T04:03:49;7.73;;;2.80;;
11970;SDS011;6045;42.682;23.294;2023-04-15T04:06:16;3.17;;;2.13;;
11970;SDS011;6045;42.682;23.294;2023-04-15T04:08:43;4.10;;;3.03;;
11970;SDS011;6045;42.682;23.294;2023-04-15T04:11:09;3.50;;;2.37;;
11970;SDS011;6045;42.682;23.294;2023-04-15T04:13:36;6.30;;;3.43;;
11970;SDS011;6045;42.682;23.294;2023-04-15T04:16:03;8.47;;;3.43;;
11970;SDS011;6045;42.682;23.294;2023-04-15T04:18:31;4.47;;;3.03;;
11970;SDS011;6045;42.682;23.294;2023-04-15T04:20:58;3.90;;;3.03;;
11970;SDS011;6045;42.682;23.294;2023-04-15T04:23:25;4.67;;;3.87;;
11970;SDS011;6045;42.682;23.294;2023-04-15T04:25:52;4.07;;;2.80;;
11970;SDS011;6045;42.682;23.294;2023-04-15T04:28:19;3.47;;;2.50;;
11970;SDS011;6045;42.682;23.294;2023-04-15T04:30:46;6.47;;;3.20;;
11970;SDS011;6045;42.682;23.294;2023-04-15T04:33:13;3.90;;;3.07;;
11970;SDS011;6045;42.682;23.294;2023-04-15T04:35:41;4.13;;;2.43;;
11970;SDS011;6045;42.682;23.294;2023-04-15T04:38:08;3.87;;;2.70;;
11970;SDS011;6045;42.682;23.294;2023-04-15T04:40:34;5.70;;;3.03;;
11970;SDS011;6045;42.682;23.294;2023-04-15T04:43:01;5.10;;;3.00;;
11970;SDS011;6045;42.682;23.294;2023-04-15T04:45:28;3.67;;;2.87;;
11970;SDS011;6045;42.682;23.294;2023-04-15T04:47:55;4.53;;;3.33;;
11970;SDS011;6045;42.682;23.294;2023-04-15T04:50:22;6.47;;;3.20;;
11970;SDS011;6045;42.682;23.294;2023-04-15T04:52:50;5.13;;;2.60;;
11970;SDS011;6045;42.682;23.294;2023-04-15T04:55:17;5.47;;;2.87;;
11970;SDS011;6045;42.682;23.294;2023-04-15T04:57:44;4.80;;;3.37;;
11970;SDS011;6045;42.682;23.294;2023-04-15T05:00:11;7.30;;;5.20;;
11970;SDS011;6045;42.682;23.294;2023-04-15T05:02:38;8.53;;;6.30;;
11970;SDS011;6045;42.682;23.294;2023-04-15T05:05:06;8.80;;;4.23;;
11970;SDS011;6045;42.682;23.294;2023-04-15T05:07:33;3.70;;;3.33;;
11970;SDS011;6045;42.682;23.294;2023-04-15T05:10:01;4.97;;;3.40;;
11970;SDS011;6045;42.682;23.294;2023-04-15T05:12:28;5.13;;;3.17;;
11970;SDS011;6045;42.682;23.294;2023-04-15T05:14:55;8.13;;;3.50;;
11970;SDS011;6045;42.682;23.294;2023-04-15T05:17:22;4.07;;;3.13;;
11970;SDS011;6045;42.682;23.294;2023-04-15T05:19:49;9.33;;;3.43;;
11970;SDS011;6045;42.682;23.294;2023-04-15T05:22:15;4.70;;;2.47;;
11970;SDS011;6045;42.682;23.294;2023-04-15T05:24:42;5.13;;;3.00;;
11970;SDS011;6045;42.682;23.294;2023-04-15T05:27:10;2.37;;;2.17;;
11970;SDS011;6045;42.682;23.294;2023-04-15T05:29:37;5.93;;;2.43;;
11970;SDS011;6045;42.682;23.294;2023-04-15T05:32:04;2.27;;;2.00;;
11970;SDS011;6045;42.682;23.294;2023-04-15T05:34:31;3.80;;;2.40;;
11970;SDS011;6045;42.682;23.294;2023-04-15T05:36:58;1.97;;;1.77;;
11970;SDS011;6045;42.682;23.294;2023-04-15T05:39:25;2.73;;;2.07;;
11970;SDS011;6045;42.682;23.294;2023-04-15T05:41:51;5.90;;;2.90;;
11970;SDS011;6045;42.682;23.294;2023-04-15T05:44:19;1.87;;;1.40;;
11970;SDS011;6045;42.682;23.294;2023-04-15T05:46:46;2.33;;;1.80;;
11970;SDS011;6045;42.682;23.294;2023-04-15T05:49:13;3.57;;;1.80;;
11970;SDS011;6045;42.682;23.294;2023-04-15T05:51:40;4.30;;;2.03;;
11970;SDS011;6045;42.682;23.294;2023-04-15T05:54:06;3.67;;;2.30;;
11970;SDS011;6045;42.682;23.294;2023-04-15T05:56:33;2.70;;;2.50;;
11970;SDS011;6045;42.682;23.294;2023-04-15T05:59:00;3.77;;;2.63;;
11970;SDS011;6045;42.682;23.294;2023-04-15T06:01:28;3.13;;;1.87;;
11970;SDS011;6045;42.682;23.294;2023-04-15T06:03:55;5.43;;;2.93;;
11970;SDS011;6045;42.682;23.294;2023-04-15T06:06:22;2.27;;;1.87;;
11970;SDS011;6045;42.682;23.294;2023-04-15T06:08:49;3.80;;;2.53;;
11970;SDS011;6045;42.682;23.294;2023-04-15T06:11:16;3.43;;;2.50;;
11970;SDS011;6045;42.682;23.294;2023-04-15T06:13:43;4.43;;;2.60;;
11970;SDS011;6045;42.682;23.294;2023-04-15T06:16:09;2.83;;;2.37;;
11970;SDS011;6045;42.682;23.294;2023-04-15T06:18:38;3.83;;;2.20;;
11970;SDS011;6045;42.682;23.294;2023-04-15T06:21:04;3.43;;;2.20;;
11970;SDS011;6045;42.682;23.294;2023-04-15T06:23:33;4.30;;;2.27;;
11970;SDS011;6045;42.682;23.294;2023-04-15T06:25:59;4.17;;;2.47;;
11970;SDS011;6045;42.682;23.294;2023-04-15T06:28:26;3.07;;;2.73;;
11970;SDS011;6045;42.682;23.294;2023-04-15T06:30:53;4.10;;;2.70;;
11970;SDS011;6045;42.682;23.294;2023-04-15T06:33:20;4.27;;;2.40;;
11970;SDS011;6045;42.682;23.294;2023-04-15T06:35:48;3.10;;;2.17;;
11970;SDS011;6045;42.682;23.294;2023-04-15T06:38:15;3.90;;;2.67;;
11970;SDS011;6045;42.682;23.294;2023-04-15T06:40:42;3.65;;;2.50;;
11970;SDS011;6045;42.682;23.294;2023-04-15T06:43:09;3.80;;;2.75;;
11970;SDS011;6045;42.682;23.294;2023-04-15T06:45:35;4.55;;;2.70;;
11970;SDS011;6045;42.682;23.294;2023-04-15T06:48:02;5.85;;;2.75;;
11970;SDS011;6045;42.682;23.294;2023-04-15T06:50:29;3.00;;;2.43;;
11970;SDS011;6045;42.682;23.294;2023-04-15T06:52:58;4.47;;;2.65;;
11970;SDS011;6045;42.682;23.294;2023-04-15T06:55:25;3.80;;;2.60;;
11970;SDS011;6045;42.682;23.294;2023-04-15T06:57:51;4.38;;;2.60;;
11970;SDS011;6045;42.682;23.294;2023-04-15T07:00:18;2.60;;;2.08;;
11970;SDS011;6045;42.682;23.294;2023-04-15T07:02:45;3.72;;;2.88;;
11970;SDS011;6045;42.682;23.294;2023-04-15T07:05:12;5.80;;;2.38;;
11970;SDS011;6045;42.682;23.294;2023-04-15T07:07:39;3.67;;;2.92;;
11970;SDS011;6045;42.682;23.294;2023-04-15T07:10:08;4.70;;;2.42;;
11970;SDS011;6045;42.682;23.294;2023-04-15T07:12:36;3.42;;;2.53;;
11970;SDS011;6045;42.682;23.294;2023-04-15T07:15:03;3.40;;;2.85;;
11970;SDS011;6045;42.682;23.294;2023-04-15T07:17:30;4.72;;;2.40;;
11970;SDS011;6045;42.682;23.294;2023-04-15T07:19:57;3.95;;;2.38;;
11970;SDS011;6045;42.682;23.294;2023-04-15T07:22:24;3.75;;;2.35;;
11970;SDS011;6045;42.682;23.294;2023-04-15T07:24:51;2.95;;;2.13;;
11970;SDS011;6045;42.682;23.294;2023-04-15T07:27:19;4.40;;;2.15;;
11970;SDS011;6045;42.682;23.294;2023-04-15T07:29:46;3.70;;;2.15;;
11970;SDS011;6045;42.682;23.294;2023-04-15T07:32:15;4.63;;;2.00;;
11970;SDS011;6045;42.682;23.294;2023-04-15T07:34:42;2.28;;;1.73;;
11970;SDS011;6045;42.682;23.294;2023-04-15T07:37:09;2.63;;;1.73;;
11970;SDS011;6045;42.682;23.294;2023-04-15T07:39:36;2.40;;;1.58;;
11970;SDS011;6045;42.682;23.294;2023-04-15T07:42:02;2.58;;;2.10;;
11970;SDS011;6045;42.682;23.294;2023-04-15T07:44:31;2.75;;;1.83;;
11970;SDS011;6045;42.682;23.294;2023-04-15T07:46:57;3.97;;;1.63;;
11970;SDS011;6045;42.682;23.294;2023-04-15T07:49:24;2.10;;;1.90;;
11970;SDS011;6045;42.682;23.294;2023-04-15T07:51:51;2.50;;;1.73;;
11970;SDS011;6045;42.682;23.294;2023-04-15T07:54:18;3.15;;;1.70;;
11970;SDS011;6045;42.682;23.294;2023-04-15T07:56:45;2.67;;;2.28;;
11970;SDS011;6045;42.682;23.294;2023-04-15T07:59:13;3.17;;;1.90;;
11970;SDS011;6045;42.682;23.294;2023-04-15T08:01:43;3.22;;;1.88;;
11970;SDS011;6045;42.682;23.294;2023-04-15T08:04:09;2.97;;;1.70;;
11970;SDS011;6045;42.682;23.294;2023-04-15T08:06:36;2.03;;;1.38;;
11970;SDS011;6045;42.682;23.294;2023-04-15T08:09:03;2.65;;;1.25;;
11970;SDS011;6045;42.682;23.294;2023-04-15T08:11:31;1.85;;;1.50;;
11970;SDS011;6045;42.682;23.294;2023-04-15T08:13:58;1.05;;;0.95;;
11970;SDS011;6045;42.682;23.294;2023-04-15T08:16:25;2.60;;;1.60;;
11970;SDS011;6045;42.682;23.294;2023-04-15T08:18:54;2.47;;;1.42;;
11970;SDS011;6045;42.682;23.294;2023-04-15T08:21:22;1.58;;;1.08;;
11970;SDS011;6045;42.682;23.294;2023-04-15T08:23:49;3.65;;;1.75;;
11970;SDS011;6045;42.682;23.294;2023-04-15T08:26:17;27.08;;;14.07;;
11970;SDS011;6045;42.682;23.294;2023-04-15T08:28:45;13.32;;;7.45;;
11970;SDS011;6045;42.682;23.294;2023-04-15T08:31:12;3.10;;;1.67;;
11970;SDS011;6045;42.682;23.294;2023-04-15T08:33:40;1.30;;;0.90;;
11970;SDS011;6045;42.682;23.294;2023-04-15T08:36:08;1.80;;;0.75;;
11970;SDS011;6045;42.682;23.294;2023-04-15T08:38:35;1.45;;;1.30;;
11970;SDS011;6045;42.682;23.294;2023-04-15T08:41:03;1.77;;;0.90;;
11970;SDS011;6045;42.682;23.294;2023-04-15T08:43:38;1.17;;;0.88;;
11970;SDS011;6045;42.682;23.294;2023-04-15T08:46:11;1.00;;;0.90;;
11970;SDS011;6045;42.682;23.294;2023-04-15T08:48:38;0.60;;;0.60;;
11970;SDS011;6045;42.682;23.294;2023-04-15T08:51:05;1.10;;;1.00;;
11970;SDS011;6045;42.682;23.294;2023-04-15T08:53:34;3.00;;;1.10;;
11970;SDS011;6045;42.682;23.294;2023-04-15T08:56:02;2.10;;;1.00;;
11970;SDS011;6045;42.682;23.294;2023-04-15T08:58:32;0.68;;;0.63;;
11970;SDS011;6045;42.682;23.294;2023-04-15T09:01:00;1.17;;;0.80;;
11970;SDS011;6045;42.682;23.294;2023-04-15T09:03:27;2.28;;;1.10;;
11970;SDS011;6045;42.682;23.294;2023-04-15T09:05:56;1.42;;;0.70;;
11970;SDS011;6045;42.682;23.294;2023-04-15T09:08:23;1.42;;;1.10;;
11970;SDS011;6045;42.682;23.294;2023-04-15T09:10:51;0.80;;;0.70;;
11970;SDS011;6045;42.682;23.294;2023-04-15T09:13:19;1.48;;;0.73;;
11970;SDS011;6045;42.682;23.294;2023-04-15T09:15:46;0.88;;;0.40;;
11970;SDS011;6045;42.682;23.294;2023-04-15T09:18:13;1.27;;;0.93;;
11970;SDS011;6045;42.682;23.294;2023-04-15T09:20:53;1.73;;;0.77;;
11970;SDS011;6045;42.682;23.294;2023-04-15T09:23:21;0.50;;;0.50;;
11970;SDS011;6045;42.682;23.294;2023-04-15T09:25:48;0.47;;;0.47;;
11970;SDS011;6045;42.682;23.294;2023-04-15T09:28:22;0.20;;;0.20;;
11970;SDS011;6045;42.682;23.294;2023-04-15T09:30:50;0.15;;;0.10;;
11970;SDS011;6045;42.682;23.294;2023-04-15T09:33:20;1.38;;;0.10;;
11970;SDS011;6045;42.682;23.294;2023-04-15T09:35:55;1.33;;;0.60;;
11970;SDS011;6045;42.682;23.294;2023-04-15T09:38:23;1.17;;;0.43;;
11970;SDS011;6045;42.682;23.294;2023-04-15T09:40:49;0.57;;;0.47;;
11970;SDS011;6045;42.682;23.294;2023-04-15T09:43:18;0.40;;;0.15;;
11970;SDS011;6045;42.682;23.294;2023-04-15T09:45:46;0.38;;;0.38;;
11970;SDS011;6045;42.682;23.294;2023-04-15T09:48:15;0.15;;;0.15;;
11970;SDS011;6045;42.682;23.294;2023-04-15T09:50:43;0.55;;;0.45;;
11970;SDS011;6045;42.682;23.294;2023-04-15T09:53:10;0.60;;;0.60;;
11970;SDS011;6045;42.682;23.294;2023-04-15T09:55:37;0.57;;;0.50;;
11970;SDS011;6045;42.682;23.294;2023-04-15T09:58:07;1.13;;;0.63;;
11970;SDS011;6045;42.682;23.294;2023-04-15T10:00:37;1.88;;;0.90;;
11970;SDS011;6045;42.682;23.294;2023-04-15T10:03:04;1.13;;;0.85;;
11970;SDS011;6045;42.682;23.294;2023-04-15T10:05:31;1.13;;;0.77;;
11970;SDS011;6045;42.682;23.294;2023-04-15T10:07:59;0.90;;;0.80;;
11970;SDS011;6045;42.682;23.294;2023-04-15T10:10:28;27.50;;;15.65;;
11970;SDS011;6045;42.682;23.294;2023-04-15T10:12:57;8.60;;;4.47;;
11970;SDS011;6045;42.682;23.294;2023-04-15T10:15:24;1.85;;;1.40;;
11970;SDS011;6045;42.682;23.294;2023-04-15T10:17:55;1.13;;;0.95;;
11970;SDS011;6045;42.682;23.294;2023-04-15T10:20:24;0.95;;;0.60;;
11970;SDS011;6045;42.682;23.294;2023-04-15T10:22:51;1.75;;;0.50;;
11970;SDS011;6045;42.682;23.294;2023-04-15T10:25:18;1.20;;;0.57;;
11970;SDS011;6045;42.682;23.294;2023-04-15T10:27:46;0.32;;;0.32;;
11970;SDS011;6045;42.682;23.294;2023-04-15T10:30:14;0.17;;;0.15;;
11970;SDS011;6045;42.682;23.294;2023-04-15T10:32:41;0.28;;;0.28;;
11970;SDS011;6045;42.682;23.294;2023-04-15T10:35:10;0.30;;;0.20;;
11970;SDS011;6045;42.682;23.294;2023-04-15T10:37:37;0.20;;;0.20;;
11970;SDS011;6045;42.682;23.294;2023-04-15T10:42:49;0.95;;;0.60;;
11970;SDS011;6045;42.682;23.294;2023-04-15T10:45:17;0.68;;;0.40;;
11970;SDS011;6045;42.682;23.294;2023-04-15T10:47:44;0.47;;;0.45;;
11970;SDS011;6045;42.682;23.294;2023-04-15T10:50:12;0.50;;;0.50;;
11970;SDS011;6045;42.682;23.294;2023-04-15T10:52:39;3.15;;;0.85;;
11970;SDS011;6045;42.682;23.294;2023-04-15T10:55:11;1.60;;;0.50;;
11970;SDS011;6045;42.682;23.294;2023-04-15T10:57:40;0.45;;;0.45;;
11970;SDS011;6045;42.682;23.294;2023-04-15T11:00:11;0.45;;;0.45;;
11970;SDS011;6045;42.682;23.294;2023-04-15T11:02:40;0.60;;;0.47;;
11970;SDS011;6045;42.682;23.294;2023-04-15T11:05:09;0.77;;;0.28;;
11970;SDS011;6045;42.682;23.294;2023-04-15T11:07:38;0.88;;;0.70;;
11970;SDS011;6045;42.682;23.294;2023-04-15T11:13:20;0.77;;;0.50;;
11970;SDS011;6045;42.682;23.294;2023-04-15T11:15:49;1.40;;;0.40;;
11970;SDS011;6045;42.682;23.294;2023-04-15T11:18:17;2.28;;;1.17;;
11970;SDS011;6045;42.682;23.294;2023-04-15T11:20:45;0.55;;;0.50;;
11970;SDS011;6045;42.682;23.294;2023-04-15T11:23:16;1.13;;;0.85;;
11970;SDS011;6045;42.682;23.294;2023-04-15T11:25:43;0.77;;;0.50;;
11970;SDS011;6045;42.682;23.294;2023-04-15T11:28:11;0.82;;;0.68;;
11970;SDS011;6045;42.682;23.294;2023-04-15T11:30:39;0.30;;;0.30;;
11970;SDS011;6045;42.682;23.294;2023-04-15T11:33:08;1.55;;;0.30;;
11970;SDS011;6045;42.682;23.294;2023-04-15T11:35:36;0.45;;;0.45;;
11970;SDS011;6045;42.682;23.294;2023-04-15T11:38:07;1.65;;;0.40;;
11970;SDS011;6045;42.682;23.294;2023-04-15T11:40:37;0.77;;;0.50;;
11970;SDS011;6045;42.682;23.294;2023-04-15T11:43:06;0.73;;;0.60;;
11970;SDS011;6045;42.682;23.294;2023-04-15T11:45:33;0.20;;;0.20;;
11970;SDS011;6045;42.682;23.294;2023-04-15T11:48:04;2.33;;;0.80;;
11970;SDS011;6045;42.682;23.294;2023-04-15T11:50:32;0.47;;;0.47;;
11970;SDS011;6045;42.682;23.294;2023-04-15T11:53:00;0.77;;;0.40;;
11970;SDS011;6045;42.682;23.294;2023-04-15T11:55:28;0.85;;;0.73;;
11970;SDS011;6045;42.682;23.294;2023-04-15T11:58:08;0.63;;;0.55;;
11970;SDS011;6045;42.682;23.294;2023-04-15T12:00:37;1.13;;;1.02;;
11970;SDS011;6045;42.682;23.294;2023-04-15T12:03:11;0.77;;;0.60;;
11970;SDS011;6045;42.682;23.294;2023-04-15T12:08:55;1.17;;;0.70;;
11970;SDS011;6045;42.682;23.294;2023-04-15T12:11:28;1.85;;;0.50;;
11970;SDS011;6045;42.682;23.294;2023-04-15T12:14:01;0.85;;;0.47;;
11970;SDS011;6045;42.682;23.294;2023-04-15T12:16:29;0.35;;;0.30;;
11970;SDS011;6045;42.682;23.294;2023-04-15T12:18:59;0.52;;;0.52;;
11970;SDS011;6045;42.682;23.294;2023-04-15T12:21:27;1.05;;;0.35;;
11970;SDS011;6045;42.682;23.294;2023-04-15T12:24:00;0.20;;;0.20;;
11970;SDS011;6045;42.682;23.294;2023-04-15T12:26:29;1.48;;;0.70;;
11970;SDS011;6045;42.682;23.294;2023-04-15T12:29:00;1.40;;;0.70;;
11970;SDS011;6045;42.682;23.294;2023-04-15T12:31:28;1.15;;;0.32;;
11970;SDS011;6045;42.682;23.294;2023-04-15T12:33:55;1.13;;;0.45;;
11970;SDS011;6045;42.682;23.294;2023-04-15T12:36:22;0.50;;;0.50;;
11970;SDS011;6045;42.682;23.294;2023-04-15T12:38:49;1.65;;;0.55;;
11970;SDS011;6045;42.682;23.294;2023-04-15T12:41:16;0.30;;;0.30;;
11970;SDS011;6045;42.682;23.294;2023-04-15T12:43:43;0.32;;;0.32;;
11970;SDS011;6045;42.682;23.294;2023-04-15T12:46:12;0.30;;;0.30;;
11970;SDS011;6045;42.682;23.294;2023-04-15T12:48:39;0.25;;;0.25;;
11970;SDS011;6045;42.682;23.294;2023-04-15T12:51:06;0.65;;;0.47;;
11970;SDS011;6045;42.682;23.294;2023-04-15T12:53:33;0.57;;;0.30;;
11970;SDS011;6045;42.682;23.294;2023-04-15T12:56:00;0.25;;;0.25;;
11970;SDS011;6045;42.682;23.294;2023-04-15T12:58:26;0.68;;;0.50;;
11970;SDS011;6045;42.682;23.294;2023-04-15T13:00:53;0.68;;;0.65;;
11970;SDS011;6045;42.682;23.294;2023-04-15T13:03:22;0.80;;;0.50;;
11970;SDS011;6045;42.682;23.294;2023-04-15T13:05:49;1.70;;;0.57;;
11970;SDS011;6045;42.682;23.294;2023-04-15T13:08:16;0.40;;;0.40;;
11970;SDS011;6045;42.682;23.294;2023-04-15T13:10:43;1.17;;;0.60;;
11970;SDS011;6045;42.682;23.294;2023-04-15T13:13:10;1.88;;;0.60;;
11970;SDS011;6045;42.682;23.294;2023-04-15T13:15:37;1.65;;;0.50;;
11970;SDS011;6045;42.682;23.294;2023-04-15T13:18:04;0.45;;;0.45;;
11970;SDS011;6045;42.682;23.294;2023-04-15T13:20:33;0.88;;;0.80;;
11970;SDS011;6045;42.682;23.294;2023-04-15T13:23:00;0.80;;;0.80;;
11970;SDS011;6045;42.682;23.294;2023-04-15T13:25:27;1.05;;;0.40;;
11970;SDS011;6045;42.682;23.294;2023-04-15T13:27:53;0.52;;;0.43;;
11970;SDS011;6045;42.682;23.294;2023-04-15T13:30:21;0.57;;;0.50;;
11970;SDS011;6045;42.682;23.294;2023-04-15T13:32:48;1.83;;;0.20;;
11970;SDS011;6045;42.682;23.294;2023-04-15T13:35:15;0.52;;;0.50;;
11970;SDS011;6045;42.682;23.294;2023-04-15T13:37:43;1.27;;;0.55;;
11970;SDS011;6045;42.682;23.294;2023-04-15T13:40:10;1.60;;;0.40;;
11970;SDS011;6045;42.682;23.294;2023-04-15T13:42:37;1.38;;;0.30;;
11970;SDS011;6045;42.682;23.294;2023-04-15T13:45:04;0.70;;;0.55;;
11970;SDS011;6045;42.682;23.294;2023-04-15T13:47:32;0.35;;;0.35;;
11970;SDS011;6045;42.682;23.294;2023-04-15T13:49:58;0.52;;;0.43;;
11970;SDS011;6045;42.682;23.294;2023-04-15T13:52:25;0.60;;;0.40;;
11970;SDS011;6045;42.682;23.294;2023-04-15T13:54:53;1.67;;;0.25;;
11970;SDS011;6045;42.682;23.294;2023-04-15T13:57:20;1.08;;;0.75;;
11970;SDS011;6045;42.682;23.294;2023-04-15T13:59:47;0.57;;;0.40;;
11970;SDS011;6045;42.682;23.294;2023-04-15T14:02:14;0.50;;;0.50;;
11970;SDS011;6045;42.682;23.294;2023-04-15T14:04:40;0.50;;;0.40;;
11970;SDS011;6045;42.682;23.294;2023-04-15T14:07:07;0.30;;;0.30;;
11970;SDS011;6045;42.682;23.294;2023-04-15T14:09:34;0.45;;;0.45;;
11970;SDS011;6045;42.682;23.294;2023-04-15T14:12:02;1.75;;;0.70;;
11970;SDS011;6045;42.682;23.294;2023-04-15T14:14:29;0.65;;;0.40;;
11970;SDS011;6045;42.682;23.294;2023-04-15T14:16:56;1.67;;;0.25;;
11970;SDS011;6045;42.682;23.294;2023-04-15T14:19:23;0.88;;;0.57;;
11970;SDS011;6045;42.682;23.294;2023-04-15T14:21:50;0.55;;;0.30;;
11970;SDS011;6045;42.682;23.294;2023-04-15T14:24:17;0.30;;;0.30;;
11970;SDS011;6045;42.682;23.294;2023-04-15T14:26:44;0.50;;;0.50;;
11970;SDS011;6045;42.682;23.294;2023-04-15T14:29:12;2.97;;;1.98;;
11970;SDS011;6045;42.682;23.294;2023-04-15T14:31:39;0.70;;;0.65;;
11970;SDS011;6045;42.682;23.294;2023-04-15T14:34:05;1.45;;;1.08;;
11970;SDS011;6045;42.682;23.294;2023-04-15T14:36:32;1.67;;;0.45;;
11970;SDS011;6045;42.682;23.294;2023-04-15T14:38:59;0.73;;;0.40;;
11970;SDS011;6045;42.682;23.294;2023-04-15T14:41:26;1.55;;;0.50;;
11970;SDS011;6045;42.682;23.294;2023-04-15T14:43:52;0.57;;;0.47;;
11970;SDS011;6045;42.682;23.294;2023-04-15T14:46:22;0.20;;;0.10;;
11970;SDS011;6045;42.682;23.294;2023-04-15T14:48:48;0.57;;;0.28;;
11970;SDS011;6045;42.682;23.294;2023-04-15T14:51:15;0.43;;;0.43;;
11970;SDS011;6045;42.682;23.294;2023-04-15T14:53:42;0.35;;;0.30;;
11970;SDS011;6045;42.682;23.294;2023-04-15T14:56:09;0.40;;;0.35;;
11970;SDS011;6045;42.682;23.294;2023-04-15T14:58:36;1.65;;;0.20;;